ROA2081 MDPC-SVMI
Flight info
| Callsign | ROA2081 |
|---|---|
| Flight time | 1h 15m |
| Altitude | 37000 |
| Route | POKAK2T POKAK UL216 KABON UA554 ROJAS A554 REKON |
| Aircraft | B77W/H-SDE1E2E3FGHIJ2J3J4J5M1RWXY/LB1D1 |
Departure
| Time | 2026-05-08 19:32 |
|---|---|
| Airport | Punta Cana International Airport (MDPC) |
Arrival
| Time | 2026-05-08 20:47 |
|---|---|
| Airport | Maiquetía Simón Bolívar International Airport (SVMI) |
| Time | Latitude | Longitude | Altitude | Speed | Heading |
|---|---|---|---|---|---|
| 2026-05-08 19:17 | 18.56388 | -68.36338 | 82 ft | 0 kts | 175° |
| 2026-05-08 19:21 | 18.56406 | -68.36340 | 53 ft | 3 kts | 176° |
| 2026-05-08 19:21 | 18.56430 | -68.36341 | 47 ft | 3 kts | 177° |
| 2026-05-08 19:21 | 18.56450 | -68.36342 | 47 ft | 3 kts | 197° |
| 2026-05-08 19:21 | 18.56465 | -68.36330 | 47 ft | 3 kts | 250° |
| 2026-05-08 19:22 | 18.56470 | -68.36306 | 47 ft | 3 kts | 266° |
| 2026-05-08 19:22 | 18.56471 | -68.36281 | 47 ft | 3 kts | 266° |
| 2026-05-08 19:22 | 18.56471 | -68.36277 | 47 ft | 0 kts | 265° |
| 2026-05-08 19:25 | 18.56471 | -68.36283 | 55 ft | 2 kts | 265° |
| 2026-05-08 19:25 | 18.56469 | -68.36310 | 55 ft | 5 kts | 265° |
| 2026-05-08 19:25 | 18.56468 | -68.36357 | 55 ft | 8 kts | 279° |
| 2026-05-08 19:25 | 18.56509 | -68.36394 | 53 ft | 9 kts | 342° |
| 2026-05-08 19:26 | 18.56550 | -68.36447 | 52 ft | 11 kts | 278° |
| 2026-05-08 19:26 | 18.56543 | -68.36532 | 51 ft | 13 kts | 264° |
| 2026-05-08 19:26 | 18.56533 | -68.36637 | 49 ft | 15 kts | 264° |
| 2026-05-08 19:26 | 18.56522 | -68.36758 | 52 ft | 18 kts | 264° |
| 2026-05-08 19:27 | 18.56508 | -68.36896 | 50 ft | 20 kts | 264° |
| 2026-05-08 19:27 | 18.56500 | -68.37008 | 54 ft | 14 kts | 266° |
| 2026-05-08 19:27 | 18.56492 | -68.37121 | 50 ft | 17 kts | 265° |
| 2026-05-08 19:27 | 18.56482 | -68.37237 | 55 ft | 16 kts | 265° |
| 2026-05-08 19:28 | 18.56471 | -68.37364 | 51 ft | 19 kts | 265° |
| 2026-05-08 19:28 | 18.56459 | -68.37505 | 49 ft | 19 kts | 265° |
| 2026-05-08 19:28 | 18.56449 | -68.37634 | 52 ft | 13 kts | 265° |
| 2026-05-08 19:28 | 18.56443 | -68.37728 | 55 ft | 12 kts | 276° |
| 2026-05-08 19:29 | 18.56476 | -68.37773 | 52 ft | 4 kts | 343° |
| 2026-05-08 19:29 | 18.56490 | -68.37778 | 48 ft | 1 kts | 345° |
| 2026-05-08 19:29 | 18.56507 | -68.37782 | 51 ft | 4 kts | 347° |
| 2026-05-08 19:29 | 18.56540 | -68.37786 | 54 ft | 6 kts | 354° |
| 2026-05-08 19:30 | 18.56588 | -68.37790 | 55 ft | 8 kts | 2° |
| 2026-05-08 19:30 | 18.56613 | -68.37757 | 50 ft | 0 kts | 82° |
| 2026-05-08 19:30 | 18.56613 | -68.37756 | 50 ft | 0 kts | 82° |
| 2026-05-08 19:31 | 18.56613 | -68.37750 | 52 ft | 2 kts | 82° |
| 2026-05-08 19:31 | 18.56630 | -68.37572 | 56 ft | 65 kts | 84° |
| 2026-05-08 19:31 | 18.56696 | -68.36802 | 56 ft | 142 kts | 85° |
| 2026-05-08 19:31 | 18.56799 | -68.35605 | 406 ft | 169 kts | 85° |
| 2026-05-08 19:32 | 18.56905 | -68.34351 | 1174 ft | 175 kts | 85° |
| 2026-05-08 19:32 | 18.57009 | -68.33079 | 1961 ft | 179 kts | 85° |
| 2026-05-08 19:32 | 18.57119 | -68.31696 | 2327 ft | 204 kts | 85° |
| 2026-05-08 19:32 | 18.57093 | -68.30104 | 2502 ft | 234 kts | 106° |
| 2026-05-08 19:33 | 18.56254 | -68.28585 | 2944 ft | 252 kts | 134° |
| 2026-05-08 19:33 | 18.54947 | -68.27302 | 3698 ft | 261 kts | 136° |
| 2026-05-08 19:33 | 18.53592 | -68.26026 | 4492 ft | 263 kts | 142° |
| 2026-05-08 19:33 | 18.51910 | -68.25242 | 4958 ft | 272 kts | 171° |
| 2026-05-08 19:34 | 18.50038 | -68.25363 | 5514 ft | 271 kts | 186° |
| 2026-05-08 19:34 | 18.48137 | -68.25618 | 6306 ft | 278 kts | 185° |
| 2026-05-08 19:34 | 18.46195 | -68.25861 | 7119 ft | 284 kts | 185° |
| 2026-05-08 19:34 | 18.44218 | -68.26109 | 7920 ft | 288 kts | 185° |
| 2026-05-08 19:35 | 18.42201 | -68.26364 | 8712 ft | 294 kts | 186° |
| 2026-05-08 19:35 | 18.40146 | -68.26626 | 9505 ft | 300 kts | 186° |
| 2026-05-08 19:35 | 18.38055 | -68.26891 | 10246 ft | 306 kts | 186° |
| 2026-05-08 19:35 | 18.35870 | -68.27169 | 10609 ft | 329 kts | 186° |
| 2026-05-08 19:36 | 18.33500 | -68.27469 | 10810 ft | 357 kts | 186° |
| 2026-05-08 19:36 | 18.30960 | -68.27791 | 11230 ft | 374 kts | 186° |
| 2026-05-08 19:36 | 18.28372 | -68.28120 | 11938 ft | 384 kts | 186° |
| 2026-05-08 19:36 | 18.25694 | -68.28460 | 12844 ft | 389 kts | 186° |
| 2026-05-08 19:37 | 18.22991 | -68.28803 | 13797 ft | 394 kts | 186° |
| 2026-05-08 19:37 | 18.20248 | -68.29152 | 14599 ft | 399 kts | 186° |
| 2026-05-08 19:37 | 18.17466 | -68.29504 | 15407 ft | 405 kts | 186° |
| 2026-05-08 19:37 | 18.14657 | -68.29860 | 16227 ft | 409 kts | 186° |
| 2026-05-08 19:38 | 18.11814 | -68.30220 | 17033 ft | 414 kts | 186° |
| 2026-05-08 19:38 | 18.08931 | -68.30584 | 17806 ft | 420 kts | 186° |
| 2026-05-08 19:38 | 18.06014 | -68.30953 | 18538 ft | 425 kts | 186° |
| 2026-05-08 19:38 | 18.03062 | -68.31326 | 19243 ft | 429 kts | 186° |
| 2026-05-08 19:39 | 18.00087 | -68.31702 | 19972 ft | 432 kts | 186° |
| 2026-05-08 19:39 | 17.97091 | -68.32080 | 20684 ft | 435 kts | 186° |
| 2026-05-08 19:39 | 17.94072 | -68.32461 | 21397 ft | 439 kts | 186° |
| 2026-05-08 19:39 | 17.91011 | -68.32848 | 22022 ft | 445 kts | 186° |
| 2026-05-08 19:40 | 17.87925 | -68.33237 | 22729 ft | 447 kts | 187° |
| 2026-05-08 19:40 | 17.84837 | -68.33627 | 23525 ft | 448 kts | 187° |
| 2026-05-08 19:40 | 17.81719 | -68.34020 | 24006 ft | 454 kts | 187° |
| 2026-05-08 19:40 | 17.78601 | -68.34413 | 24560 ft | 458 kts | 187° |
| 2026-05-08 19:41 | 17.75422 | -68.34814 | 25062 ft | 462 kts | 187° |
| 2026-05-08 19:41 | 17.72205 | -68.35219 | 25520 ft | 469 kts | 187° |
| 2026-05-08 19:41 | 17.68948 | -68.35629 | 25979 ft | 474 kts | 187° |
| 2026-05-08 19:41 | 17.65651 | -68.36044 | 26483 ft | 479 kts | 187° |
| 2026-05-08 19:42 | 17.62330 | -68.36461 | 27012 ft | 482 kts | 187° |
| 2026-05-08 19:42 | 17.58996 | -68.36881 | 27547 ft | 485 kts | 187° |
| 2026-05-08 19:42 | 17.55631 | -68.37304 | 28054 ft | 489 kts | 187° |
| 2026-05-08 19:42 | 17.52231 | -68.37731 | 28496 ft | 494 kts | 187° |
| 2026-05-08 19:43 | 17.48801 | -68.38162 | 28932 ft | 499 kts | 187° |
| 2026-05-08 19:43 | 17.45339 | -68.38596 | 29398 ft | 503 kts | 187° |
| 2026-05-08 19:43 | 17.41856 | -68.39034 | 29876 ft | 506 kts | 187° |
| 2026-05-08 19:43 | 17.38344 | -68.39474 | 30281 ft | 510 kts | 187° |
| 2026-05-08 19:44 | 17.34810 | -68.39917 | 30655 ft | 513 kts | 187° |
| 2026-05-08 19:44 | 17.31256 | -68.40363 | 31008 ft | 515 kts | 187° |
| 2026-05-08 19:44 | 17.27687 | -68.40810 | 31413 ft | 516 kts | 187° |
| 2026-05-08 19:44 | 17.24126 | -68.41256 | 31908 ft | 515 kts | 186° |
| 2026-05-08 19:45 | 17.20568 | -68.41701 | 32422 ft | 513 kts | 186° |
| 2026-05-08 19:45 | 17.17025 | -68.42145 | 32925 ft | 512 kts | 186° |
| 2026-05-08 19:45 | 17.13485 | -68.42588 | 33366 ft | 512 kts | 186° |
| 2026-05-08 19:45 | 17.09952 | -68.43030 | 33829 ft | 511 kts | 186° |
| 2026-05-08 19:46 | 17.06422 | -68.43471 | 34251 ft | 510 kts | 186° |
| 2026-05-08 19:46 | 17.02905 | -68.43911 | 34671 ft | 509 kts | 186° |
| 2026-05-08 19:46 | 16.95900 | -68.44786 | 35470 ft | 506 kts | 186° |
| 2026-05-08 19:47 | 16.92447 | -68.45217 | 35854 ft | 505 kts | 186° |
| 2026-05-08 19:47 | 16.88961 | -68.45652 | 36237 ft | 504 kts | 186° |
| 2026-05-08 19:47 | 16.85469 | -68.46087 | 36614 ft | 503 kts | 186° |
| 2026-05-08 19:47 | 16.81993 | -68.46521 | 36964 ft | 503 kts | 186° |
| 2026-05-08 19:48 | 16.74995 | -68.47393 | 36961 ft | 507 kts | 186° |
| 2026-05-08 19:48 | 16.68024 | -68.48261 | 36941 ft | 501 kts | 186° |
| 2026-05-08 19:49 | 16.61106 | -68.49122 | 36956 ft | 500 kts | 186° |
| 2026-05-08 19:49 | 16.54198 | -68.49981 | 36955 ft | 499 kts | 186° |
| 2026-05-08 19:50 | 16.47294 | -68.50839 | 36952 ft | 499 kts | 186° |
| 2026-05-08 19:50 | 16.40388 | -68.51696 | 36949 ft | 500 kts | 186° |
| 2026-05-08 19:51 | 16.33468 | -68.52555 | 36948 ft | 501 kts | 186° |
| 2026-05-08 19:51 | 16.26542 | -68.53414 | 36956 ft | 502 kts | 186° |
| 2026-05-08 19:52 | 16.19637 | -68.54269 | 36940 ft | 502 kts | 186° |
| 2026-05-08 19:52 | 16.12699 | -68.55128 | 36942 ft | 503 kts | 186° |
| 2026-05-08 19:53 | 16.05749 | -68.55989 | 36937 ft | 503 kts | 186° |
| 2026-05-08 19:53 | 15.98801 | -68.56599 | 36921 ft | 501 kts | 174° |
| 2026-05-08 19:54 | 15.92002 | -68.55236 | 36937 ft | 498 kts | 166° |
| 2026-05-08 19:54 | 15.85251 | -68.53624 | 36937 ft | 499 kts | 166° |
| 2026-05-08 19:55 | 15.78461 | -68.52099 | 36941 ft | 500 kts | 167° |
| 2026-05-08 19:55 | 15.71646 | -68.50643 | 36942 ft | 501 kts | 167° |
| 2026-05-08 19:56 | 15.64809 | -68.49199 | 36939 ft | 501 kts | 167° |
| 2026-05-08 19:56 | 15.58013 | -68.47758 | 36934 ft | 502 kts | 167° |
| 2026-05-08 19:57 | 15.51163 | -68.46302 | 36938 ft | 502 kts | 167° |
| 2026-05-08 19:57 | 15.44321 | -68.44848 | 36939 ft | 502 kts | 167° |
| 2026-05-08 19:58 | 15.37473 | -68.43394 | 36931 ft | 502 kts | 167° |
| 2026-05-08 19:58 | 15.30624 | -68.41941 | 36930 ft | 502 kts | 167° |
| 2026-05-08 19:59 | 15.23776 | -68.40489 | 36931 ft | 502 kts | 168° |
| 2026-05-08 19:59 | 15.18079 | -68.39286 | 36932 ft | 502 kts | 168° |
| 2026-05-08 20:00 | 15.10122 | -68.37630 | 36935 ft | 502 kts | 168° |
| 2026-05-08 20:00 | 15.04387 | -68.36439 | 36932 ft | 502 kts | 168° |
| 2026-05-08 20:01 | 14.97546 | -68.35017 | 36930 ft | 502 kts | 168° |
| 2026-05-08 20:01 | 14.90743 | -68.33602 | 36925 ft | 502 kts | 168° |
| 2026-05-08 20:02 | 14.83854 | -68.32169 | 36938 ft | 502 kts | 168° |
| 2026-05-08 20:02 | 14.77053 | -68.30755 | 36926 ft | 502 kts | 168° |
| 2026-05-08 20:03 | 14.70201 | -68.29333 | 36926 ft | 502 kts | 168° |
| 2026-05-08 20:03 | 14.63347 | -68.27910 | 36927 ft | 502 kts | 168° |
| 2026-05-08 20:04 | 14.56495 | -68.26487 | 36921 ft | 502 kts | 168° |
| 2026-05-08 20:04 | 14.49638 | -68.25064 | 36920 ft | 502 kts | 168° |
| 2026-05-08 20:05 | 14.42772 | -68.23641 | 36919 ft | 503 kts | 168° |
| 2026-05-08 20:05 | 14.35915 | -68.22220 | 36935 ft | 503 kts | 168° |
| 2026-05-08 20:06 | 14.29053 | -68.20798 | 36917 ft | 503 kts | 168° |
| 2026-05-08 20:06 | 14.22234 | -68.19387 | 36912 ft | 503 kts | 168° |
| 2026-05-08 20:07 | 14.15471 | -68.17552 | 36933 ft | 503 kts | 161° |
| 2026-05-08 20:07 | 14.08840 | -68.15218 | 36916 ft | 504 kts | 160° |
| 2026-05-08 20:08 | 14.02206 | -68.12867 | 36916 ft | 505 kts | 160° |
| 2026-05-08 20:08 | 13.95554 | -68.10550 | 36914 ft | 505 kts | 161° |
| 2026-05-08 20:09 | 13.88885 | -68.08249 | 36918 ft | 506 kts | 161° |
| 2026-05-08 20:09 | 13.82212 | -68.05949 | 36912 ft | 506 kts | 161° |
| 2026-05-08 20:10 | 13.75530 | -68.03645 | 36914 ft | 506 kts | 161° |
| 2026-05-08 20:10 | 13.68856 | -68.01344 | 36916 ft | 506 kts | 161° |
| 2026-05-08 20:11 | 13.62182 | -67.99044 | 36912 ft | 506 kts | 161° |
| 2026-05-08 20:11 | 13.55548 | -67.96760 | 36909 ft | 505 kts | 161° |
| 2026-05-08 20:12 | 13.48888 | -67.94467 | 36911 ft | 505 kts | 161° |
| 2026-05-08 20:12 | 13.42220 | -67.92174 | 36909 ft | 505 kts | 161° |
| 2026-05-08 20:13 | 13.35556 | -67.89882 | 36906 ft | 505 kts | 161° |
| 2026-05-08 20:13 | 13.28888 | -67.87591 | 36905 ft | 505 kts | 161° |
| 2026-05-08 20:14 | 13.22233 | -67.85294 | 36906 ft | 504 kts | 161° |
| 2026-05-08 20:14 | 13.15584 | -67.82993 | 36899 ft | 504 kts | 161° |
| 2026-05-08 20:15 | 13.08925 | -67.80693 | 36896 ft | 505 kts | 161° |
| 2026-05-08 20:15 | 13.02308 | -67.78414 | 36897 ft | 505 kts | 161° |
| 2026-05-08 20:16 | 12.95645 | -67.76127 | 36911 ft | 505 kts | 161° |
| 2026-05-08 20:16 | 12.88984 | -67.73839 | 36898 ft | 505 kts | 161° |
| 2026-05-08 20:17 | 12.82307 | -67.71546 | 36893 ft | 505 kts | 161° |
| 2026-05-08 20:17 | 12.75686 | -67.69274 | 36893 ft | 505 kts | 161° |
| 2026-05-08 20:18 | 12.69038 | -67.67036 | 36450 ft | 500 kts | 162° |
| 2026-05-08 20:18 | 12.65737 | -67.65951 | 36021 ft | 495 kts | 161° |
| 2026-05-08 20:18 | 12.62468 | -67.64881 | 35582 ft | 491 kts | 161° |
| 2026-05-08 20:19 | 12.59221 | -67.63817 | 35121 ft | 487 kts | 161° |
| 2026-05-08 20:19 | 12.56000 | -67.62759 | 34660 ft | 484 kts | 161° |
| 2026-05-08 20:19 | 12.52804 | -67.61706 | 34185 ft | 482 kts | 160° |
| 2026-05-08 20:19 | 12.49621 | -67.60657 | 33677 ft | 479 kts | 160° |
| 2026-05-08 20:20 | 12.46454 | -67.59611 | 33169 ft | 476 kts | 160° |
| 2026-05-08 20:20 | 12.43308 | -67.58573 | 32694 ft | 473 kts | 160° |
| 2026-05-08 20:20 | 12.40179 | -67.57541 | 32224 ft | 470 kts | 160° |
| 2026-05-08 20:20 | 12.37076 | -67.56518 | 31765 ft | 467 kts | 160° |
| 2026-05-08 20:21 | 12.33990 | -67.55500 | 31318 ft | 464 kts | 160° |
| 2026-05-08 20:21 | 12.30925 | -67.54491 | 30857 ft | 462 kts | 160° |
| 2026-05-08 20:21 | 12.27874 | -67.53485 | 30392 ft | 460 kts | 159° |
| 2026-05-08 20:21 | 12.24829 | -67.52482 | 29922 ft | 458 kts | 159° |
| 2026-05-08 20:22 | 12.21797 | -67.51484 | 29390 ft | 456 kts | 159° |
| 2026-05-08 20:22 | 12.18786 | -67.50493 | 28900 ft | 453 kts | 159° |
| 2026-05-08 20:22 | 12.15802 | -67.49511 | 28428 ft | 450 kts | 159° |
| 2026-05-08 20:22 | 12.12835 | -67.48535 | 27958 ft | 446 kts | 159° |
| 2026-05-08 20:23 | 12.09882 | -67.47563 | 27491 ft | 443 kts | 159° |
| 2026-05-08 20:23 | 12.06963 | -67.46603 | 27046 ft | 440 kts | 159° |
| 2026-05-08 20:23 | 12.04058 | -67.45647 | 26592 ft | 437 kts | 159° |
| 2026-05-08 20:23 | 12.01210 | -67.44710 | 26157 ft | 434 kts | 159° |
| 2026-05-08 20:24 | 11.98349 | -67.43770 | 25712 ft | 432 kts | 158° |
| 2026-05-08 20:24 | 11.95493 | -67.42831 | 25250 ft | 430 kts | 158° |
| 2026-05-08 20:24 | 11.92652 | -67.41897 | 24804 ft | 428 kts | 158° |
| 2026-05-08 20:24 | 11.89829 | -67.40967 | 24348 ft | 426 kts | 158° |
| 2026-05-08 20:25 | 11.87022 | -67.40041 | 23903 ft | 424 kts | 158° |
| 2026-05-08 20:25 | 11.84216 | -67.39115 | 23455 ft | 422 kts | 158° |
| 2026-05-08 20:25 | 11.81429 | -67.38195 | 22945 ft | 420 kts | 158° |
| 2026-05-08 20:25 | 11.78656 | -67.37281 | 22474 ft | 417 kts | 159° |
| 2026-05-08 20:26 | 11.75908 | -67.36375 | 22023 ft | 413 kts | 159° |
| 2026-05-08 20:26 | 11.73180 | -67.35476 | 21577 ft | 410 kts | 159° |
| 2026-05-08 20:26 | 11.70476 | -67.34585 | 21145 ft | 407 kts | 159° |
| 2026-05-08 20:26 | 11.67786 | -67.33699 | 20719 ft | 404 kts | 159° |
| 2026-05-08 20:27 | 11.65121 | -67.32821 | 20260 ft | 401 kts | 159° |
| 2026-05-08 20:27 | 11.62476 | -67.31950 | 19847 ft | 398 kts | 159° |
| 2026-05-08 20:27 | 11.59841 | -67.31083 | 19410 ft | 396 kts | 159° |
| 2026-05-08 20:27 | 11.57253 | -67.30252 | 18967 ft | 392 kts | 160° |
| 2026-05-08 20:28 | 11.54694 | -67.29452 | 18546 ft | 377 kts | 160° |
| 2026-05-08 20:28 | 11.52226 | -67.28685 | 18120 ft | 364 kts | 161° |
| 2026-05-08 20:28 | 11.49842 | -67.27943 | 17669 ft | 352 kts | 160° |
| 2026-05-08 20:28 | 11.47525 | -67.27218 | 17273 ft | 346 kts | 160° |
| 2026-05-08 20:29 | 11.45233 | -67.26498 | 16893 ft | 344 kts | 160° |
| 2026-05-08 20:29 | 11.42949 | -67.25780 | 16505 ft | 343 kts | 159° |
| 2026-05-08 20:29 | 11.40674 | -67.25064 | 16134 ft | 341 kts | 161° |
| 2026-05-08 20:29 | 11.38411 | -67.24354 | 15750 ft | 340 kts | 160° |
| 2026-05-08 20:30 | 11.36154 | -67.23647 | 15368 ft | 339 kts | 159° |
| 2026-05-08 20:30 | 11.33902 | -67.22940 | 15002 ft | 338 kts | 159° |
| 2026-05-08 20:30 | 11.31658 | -67.22239 | 14619 ft | 337 kts | 160° |
| 2026-05-08 20:30 | 11.29389 | -67.21833 | 14236 ft | 338 kts | 175° |
| 2026-05-08 20:31 | 11.27039 | -67.21772 | 13858 ft | 338 kts | 178° |
| 2026-05-08 20:31 | 11.24687 | -67.21763 | 13441 ft | 338 kts | 178° |
| 2026-05-08 20:31 | 11.22342 | -67.21756 | 13030 ft | 337 kts | 176° |
| 2026-05-08 20:31 | 11.20002 | -67.21737 | 12639 ft | 335 kts | 176° |
| 2026-05-08 20:32 | 11.17673 | -67.21705 | 12275 ft | 333 kts | 177° |
| 2026-05-08 20:32 | 11.15368 | -67.21665 | 11937 ft | 330 kts | 176° |
| 2026-05-08 20:32 | 11.13075 | -67.21619 | 11578 ft | 328 kts | 176° |
| 2026-05-08 20:32 | 11.10798 | -67.21571 | 11207 ft | 327 kts | 176° |
| 2026-05-08 20:33 | 11.08526 | -67.21521 | 10843 ft | 326 kts | 175° |
| 2026-05-08 20:33 | 11.06263 | -67.21469 | 10476 ft | 324 kts | 176° |
| 2026-05-08 20:33 | 11.04022 | -67.21419 | 10253 ft | 318 kts | 176° |
| 2026-05-08 20:33 | 11.01837 | -67.21370 | 10115 ft | 309 kts | 176° |
| 2026-05-08 20:34 | 10.99744 | -67.21324 | 9933 ft | 302 kts | 175° |
| 2026-05-08 20:34 | 10.97649 | -67.21276 | 9621 ft | 300 kts | 175° |
| 2026-05-08 20:34 | 10.93488 | -67.21180 | 8928 ft | 297 kts | 176° |
| 2026-05-08 20:35 | 10.91434 | -67.21134 | 8630 ft | 294 kts | 176° |
| 2026-05-08 20:35 | 10.89382 | -67.21087 | 8277 ft | 294 kts | 177° |
| 2026-05-08 20:35 | 10.87368 | -67.21043 | 7928 ft | 285 kts | 176° |
| 2026-05-08 20:35 | 10.85429 | -67.21113 | 7599 ft | 275 kts | 191° |
| 2026-05-08 20:36 | 10.83741 | -67.21948 | 7303 ft | 269 kts | 217° |
| 2026-05-08 20:36 | 10.82524 | -67.23344 | 7001 ft | 263 kts | 234° |
| 2026-05-08 20:36 | 10.81529 | -67.24915 | 6723 ft | 264 kts | 236° |
| 2026-05-08 20:36 | 10.80535 | -67.26511 | 6418 ft | 270 kts | 235° |
| 2026-05-08 20:37 | 10.79521 | -67.28138 | 6091 ft | 273 kts | 236° |
| 2026-05-08 20:37 | 10.78502 | -67.29767 | 5774 ft | 273 kts | 236° |
| 2026-05-08 20:37 | 10.77481 | -67.31393 | 5439 ft | 273 kts | 236° |
| 2026-05-08 20:37 | 10.76460 | -67.33014 | 5120 ft | 272 kts | 237° |
| 2026-05-08 20:38 | 10.75437 | -67.34632 | 4809 ft | 272 kts | 237° |
| 2026-05-08 20:38 | 10.74427 | -67.36228 | 4480 ft | 272 kts | 237° |
| 2026-05-08 20:38 | 10.73404 | -67.37843 | 4169 ft | 271 kts | 237° |
| 2026-05-08 20:38 | 10.72361 | -67.39406 | 4022 ft | 259 kts | 227° |
| 2026-05-08 20:39 | 10.70904 | -67.40379 | 4005 ft | 252 kts | 195° |
| 2026-05-08 20:39 | 10.69146 | -67.40502 | 3991 ft | 260 kts | 169° |
| 2026-05-08 20:39 | 10.67451 | -67.39853 | 3986 ft | 262 kts | 147° |
| 2026-05-08 20:39 | 10.66176 | -67.38576 | 3986 ft | 256 kts | 124° |
| 2026-05-08 20:40 | 10.65151 | -67.37067 | 3989 ft | 262 kts | 124° |
| 2026-05-08 20:40 | 10.64102 | -67.35537 | 4007 ft | 266 kts | 124° |
| 2026-05-08 20:40 | 10.63045 | -67.34010 | 3983 ft | 262 kts | 125° |
| 2026-05-08 20:40 | 10.62000 | -67.32511 | 3978 ft | 258 kts | 125° |
| 2026-05-08 20:41 | 10.60962 | -67.31026 | 3988 ft | 258 kts | 125° |
| 2026-05-08 20:41 | 10.59967 | -67.29584 | 3972 ft | 244 kts | 120° |
| 2026-05-08 20:41 | 10.59475 | -67.28040 | 4026 ft | 222 kts | 94° |
| 2026-05-08 20:41 | 10.59461 | -67.26482 | 3998 ft | 219 kts | 89° |
| 2026-05-08 20:42 | 10.59503 | -67.24937 | 3995 ft | 219 kts | 88° |
| 2026-05-08 20:42 | 10.59565 | -67.23394 | 3995 ft | 218 kts | 88° |
| 2026-05-08 20:43 | 10.59776 | -67.19376 | 3938 ft | 200 kts | 84° |
| 2026-05-08 20:43 | 10.59879 | -67.17959 | 3991 ft | 198 kts | 87° |
| 2026-05-08 20:43 | 10.59934 | -67.16591 | 3919 ft | 189 kts | 88° |
| 2026-05-08 20:43 | 10.59974 | -67.15295 | 3589 ft | 184 kts | 88° |
| 2026-05-08 20:44 | 10.60012 | -67.13991 | 3441 ft | 186 kts | 88° |
| 2026-05-08 20:44 | 10.60049 | -67.12718 | 3271 ft | 173 kts | 88° |
| 2026-05-08 20:44 | 10.60083 | -67.11558 | 2888 ft | 157 kts | 88° |
| 2026-05-08 20:44 | 10.60115 | -67.10471 | 2314 ft | 152 kts | 88° |
| 2026-05-08 20:45 | 10.60146 | -67.09409 | 1822 ft | 144 kts | 88° |
| 2026-05-08 20:45 | 10.60176 | -67.08398 | 1673 ft | 150 kts | 88° |
| 2026-05-08 20:45 | 10.60207 | -67.07320 | 1433 ft | 153 kts | 88° |
| 2026-05-08 20:45 | 10.60238 | -67.06259 | 1234 ft | 151 kts | 88° |
| 2026-05-08 20:46 | 10.60279 | -67.05213 | 1053 ft | 146 kts | 88° |
| 2026-05-08 20:46 | 10.60310 | -67.04184 | 858 ft | 147 kts | 89° |
| 2026-05-08 20:46 | 10.60341 | -67.03158 | 654 ft | 142 kts | 87° |
| 2026-05-08 20:46 | 10.60372 | -67.02156 | 440 ft | 144 kts | 89° |
| 2026-05-08 20:47 | 10.60391 | -67.01192 | 285 ft | 127 kts | 89° |
| 2026-05-08 20:47 | 10.60409 | -67.00359 | 232 ft | 101 kts | 89° |
| 2026-05-08 20:47 | 10.60425 | -66.99851 | 227 ft | 48 kts | 88° |
| 2026-05-08 20:47 | 10.60411 | -66.99685 | 224 ft | 12 kts | 142° |
| 2026-05-08 20:48 | 10.60345 | -66.99673 | 219 ft | 13 kts | 175° |
| 2026-05-08 20:48 | 10.60260 | -66.99671 | 214 ft | 0 kts | 185° |
| 2026-05-08 20:48 | 10.60241 | -66.99697 | 217 ft | 9 kts | 256° |
| 2026-05-08 20:48 | 10.60253 | -66.99826 | 224 ft | 21 kts | 274° |
| 2026-05-08 20:49 | 10.60252 | -66.99977 | 229 ft | 21 kts | 269° |
| 2026-05-08 20:49 | 10.60247 | -67.00128 | 223 ft | 21 kts | 267° |
| 2026-05-08 20:49 | 10.60234 | -67.00277 | 229 ft | 18 kts | 244° |
| 2026-05-08 20:49 | 10.60138 | -67.00297 | 229 ft | 15 kts | 177° |
| 2026-05-08 20:50 | 10.60036 | -67.00301 | 231 ft | 15 kts | 201° |
| 2026-05-08 20:50 | 10.60002 | -67.00394 | 231 ft | 15 kts | 266° |
| 2026-05-08 20:50 | 10.59999 | -67.00498 | 233 ft | 15 kts | 268° |
| 2026-05-08 20:50 | 10.59995 | -67.00603 | 236 ft | 15 kts | 268° |
| 2026-05-08 20:51 | 10.59968 | -67.00683 | 236 ft | 8 kts | 196° |
| 2026-05-08 20:51 | 10.59909 | -67.00677 | 236 ft | 9 kts | 178° |
| 2026-05-08 20:51 | 10.59854 | -67.00675 | 236 ft | 7 kts | 178° |
| 2026-05-08 20:51 | 10.59832 | -67.00675 | 239 ft | 1 kts | 178° |
| 2026-05-08 20:52 | 10.59828 | -67.00675 | 238 ft | 0 kts | 178° |